Time,TemperatureF,DewpointF,PressureIn,WindDirection,WindDirectionDegrees,WindSpeedMPH,WindSpeedGustMPH,Humidity,HourlyPrecipIn,Conditions,Clouds,dailyrainin,SoftwareType,DateUTC
2013-09-28 00:13:00,67.0,-99.9,-100.00,SSE,152,8.0,11.0,-999,0.00,,,0.00,,2013-09-28 05:13:00,
2013-09-28 00:22:00,67.0,-99.9,-100.00,SSE,152,8.0,11.0,-999,0.00,,,0.00,,2013-09-28 05:22:00,
2013-09-28 00:43:00,66.0,-99.9,-100.00,SSE,148,5.0,9.0,-999,0.00,,,0.00,,2013-09-28 05:43:00,
2013-09-28 00:53:00,66.0,-99.9,-100.00,SSE,148,5.0,9.0,-999,0.00,,,0.00,,2013-09-28 05:53:00,
2013-09-28 01:13:00,66.0,-99.9,-100.00,SSE,147,7.0,11.0,-999,0.00,,,0.00,,2013-09-28 06:13:00,
2013-09-28 01:22:00,66.0,-99.9,-100.00,SSE,147,7.0,11.0,-999,0.00,,,0.00,,2013-09-28 06:22:00,
2013-09-28 01:42:00,65.0,-99.9,-100.00,SE,146,6.0,9.0,-999,0.00,,,0.00,,2013-09-28 06:42:00,
2013-09-28 01:52:00,65.0,-99.9,-100.00,SE,146,6.0,9.0,-999,0.00,,,0.00,,2013-09-28 06:52:00,
2013-09-28 02:12:00,65.0,-99.9,-100.00,SE,140,8.0,10.0,-999,0.00,,,0.00,,2013-09-28 07:12:00,
2013-09-28 02:22:00,65.0,-99.9,-100.00,SE,140,8.0,10.0,-999,0.00,,,0.00,,2013-09-28 07:22:00,
2013-09-28 02:42:00,65.0,-99.9,-100.00,SE,139,6.0,10.0,-999,0.00,,,0.00,,2013-09-28 07:42:00,
2013-09-28 02:52:00,65.0,-99.9,-100.00,SE,139,6.0,10.0,-999,0.00,,,0.00,,2013-09-28 07:52:00,
2013-09-28 03:13:00,65.0,-99.9,-100.00,SE,144,9.0,12.0,-999,0.00,,,0.00,,2013-09-28 08:13:00,
2013-09-28 03:22:00,65.0,-99.9,-100.00,SE,144,9.0,12.0,-999,0.00,,,0.00,,2013-09-28 08:22:00,
2013-09-28 03:43:00,64.0,-99.9,-100.00,SE,145,6.0,14.0,-999,0.00,,,0.00,,2013-09-28 08:43:00,
2013-09-28 04:12:00,64.0,-99.9,-100.00,SSE,152,4.0,9.0,-999,0.00,,,0.00,,2013-09-28 09:12:00,
2013-09-28 04:22:00,64.0,-99.9,-100.00,SSE,152,4.0,9.0,-999,0.00,,,0.00,,2013-09-28 09:22:00,
2013-09-28 04:43:00,64.0,-99.9,-100.00,SSE,148,6.0,11.0,-999,0.00,,,0.00,,2013-09-28 09:43:00,
2013-09-28 04:54:00,64.0,-99.9,-100.00,SSE,148,6.0,11.0,-999,0.00,,,0.00,,2013-09-28 09:54:00,
2013-09-28 05:13:00,64.0,-99.9,-100.00,SSE,153,5.0,10.0,-999,0.00,,,0.00,,2013-09-28 10:13:00,
2013-09-28 05:22:00,64.0,-99.9,-100.00,SSE,153,5.0,10.0,-999,0.00,,,0.00,,2013-09-28 10:22:00,
2013-09-28 05:43:00,65.0,-99.9,-100.00,SSE,152,4.0,9.0,-999,0.00,,,0.00,,2013-09-28 10:43:00,
2013-09-28 05:53:00,65.0,-99.9,-100.00,SSE,152,4.0,9.0,-999,0.00,,,0.00,,2013-09-28 10:53:00,
2013-09-28 06:12:00,64.0,-99.9,-100.00,SE,142,4.0,7.0,-999,0.00,,,0.00,,2013-09-28 11:12:00,
2013-09-28 06:22:00,64.0,-99.9,-100.00,SE,142,4.0,7.0,-999,0.00,,,0.00,,2013-09-28 11:22:00,
2013-09-28 06:30:00,65.0,-99.9,-100.00,SSE,149,6.0,9.0,-999,0.00,,,0.00,,2013-09-28 11:30:00,
2013-09-28 06:43:00,65.0,-99.9,-100.00,SE,144,5.0,9.0,-999,0.00,,,0.00,,2013-09-28 11:43:00,
2013-09-28 06:52:00,65.0,-99.9,-100.00,SE,144,5.0,9.0,-999,0.00,,,0.00,,2013-09-28 11:52:00,
2013-09-28 07:12:00,65.0,-99.9,-100.00,SSE,149,6.0,9.0,-999,0.00,,,0.00,,2013-09-28 12:12:00,
2013-09-28 07:22:00,65.0,-99.9,-100.00,SSE,149,6.0,9.0,-999,0.00,,,0.00,,2013-09-28 12:22:00,
2013-09-28 08:12:00,66.0,-99.9,-100.00,SSE,148,8.0,14.0,-999,0.00,,,-99.99,,2013-09-28 13:12:00,
2013-09-28 08:22:00,66.0,-99.9,-100.00,SSE,148,8.0,14.0,-999,0.00,,,-99.99,,2013-09-28 13:22:00,
2013-09-28 08:42:00,67.0,-99.9,-100.00,SE,145,9.0,13.0,-999,0.00,,,0.00,,2013-09-28 13:42:00,
2013-09-28 08:52:00,67.0,-99.9,-100.00,SE,145,9.0,13.0,-999,0.00,,,0.00,,2013-09-28 13:52:00,
2013-09-28 09:12:00,68.0,-99.9,-100.00,SSE,147,7.0,12.0,-999,0.00,,,0.00,,2013-09-28 14:12:00,
2013-09-28 09:22:00,68.0,-99.9,-100.00,SSE,147,7.0,12.0,-999,0.00,,,0.00,,2013-09-28 14:22:00,
2013-09-28 09:42:00,70.0,-99.9,-100.00,SE,144,6.0,9.0,-999,0.00,,,0.00,,2013-09-28 14:42:00,
2013-09-28 09:52:00,70.0,-99.9,-100.00,SE,144,6.0,9.0,-999,0.00,,,0.00,,2013-09-28 14:52:00,
2013-09-28 10:12:00,72.0,-99.9,-100.00,SSE,152,9.0,14.0,-999,0.00,,,0.00,,2013-09-28 15:12:00,
2013-09-28 10:23:00,72.0,-99.9,-100.00,SSE,152,9.0,14.0,-999,0.00,,,0.00,,2013-09-28 15:23:00,
2013-09-28 10:44:00,75.0,-99.9,-100.00,SSE,156,5.0,9.0,-999,0.00,,,0.00,,2013-09-28 15:44:00,
2013-09-28 10:54:00,75.0,-99.9,-100.00,SSE,156,5.0,9.0,-999,0.00,,,0.00,,2013-09-28 15:54:00,
2013-09-28 11:14:00,76.0,-99.9,-100.00,SSE,156,9.0,15.0,-999,0.00,,,0.00,,2013-09-28 16:14:00,
2013-09-28 11:24:00,76.0,-99.9,-100.00,SSE,156,9.0,15.0,-999,0.00,,,0.00,,2013-09-28 16:24:00,
2013-09-28 11:43:00,78.0,-99.9,-100.00,SSE,155,7.0,12.0,-999,0.00,,,0.00,,2013-09-28 16:43:00,
2013-09-28 11:54:00,78.0,-99.9,-100.00,SSE,155,7.0,12.0,-999,0.00,,,0.00,,2013-09-28 16:54:00,
2013-09-28 12:13:00,77.0,-99.9,-100.00,SSE,168,6.0,13.0,-999,0.00,,,0.00,,2013-09-28 17:13:00,
2013-09-28 12:24:00,77.0,-99.9,-100.00,SSE,168,6.0,13.0,-999,0.00,,,0.00,,2013-09-28 17:24:00,
2013-09-28 12:43:00,77.0,-99.9,-100.00,SSE,155,6.0,13.0,-999,0.00,,,0.00,,2013-09-28 17:43:00,
2013-09-28 12:52:00,77.0,-99.9,-100.00,SSE,155,6.0,13.0,-999,0.00,,,0.00,,2013-09-28 17:52:00,
2013-09-28 13:12:00,76.0,-99.9,-100.00,SSE,159,6.0,13.0,-999,0.00,,,0.00,,2013-09-28 18:12:00,
2013-09-28 13:22:00,76.0,-99.9,-100.00,SSE,159,6.0,13.0,-999,0.00,,,0.00,,2013-09-28 18:22:00,
2013-09-28 13:42:00,76.0,-99.9,-100.00,South,175,2.0,4.0,-999,0.00,,,0.00,,2013-09-28 18:42:00,
2013-09-28 13:52:00,76.0,-99.9,-100.00,South,175,2.0,4.0,-999,0.00,,,0.00,,2013-09-28 18:52:00,
2013-09-28 14:12:00,76.0,-99.9,-100.00,South,187,2.0,3.0,-999,0.00,,,0.00,,2013-09-28 19:12:00,
2013-09-28 14:22:00,76.0,-99.9,-100.00,South,187,2.0,3.0,-999,0.00,,,0.00,,2013-09-28 19:22:00,
2013-09-28 14:42:00,70.0,-99.9,-100.00,South,175,0.0,3.0,-999,0.00,,,0.00,,2013-09-28 19:42:00,
2013-09-28 14:52:00,70.0,-99.9,-100.00,South,175,0.0,3.0,-999,0.00,,,0.00,,2013-09-28 19:52:00,
2013-09-28 15:12:00,70.0,-99.9,-100.00,SSE,167,2.0,4.0,-999,0.02,,,0.02,,2013-09-28 20:12:00,
2013-09-28 15:23:00,70.0,-99.9,-100.00,SSE,167,2.0,4.0,-999,0.02,,,0.02,,2013-09-28 20:23:00,
2013-09-28 15:43:00,69.0,-99.9,-100.00,South,171,2.0,3.0,-999,0.03,,,0.03,,2013-09-28 20:43:00,
2013-09-28 15:53:00,69.0,-99.9,-100.00,South,171,2.0,3.0,-999,0.03,,,0.03,,2013-09-28 20:53:00,
2013-09-28 16:12:00,69.0,-99.9,-100.00,South,174,2.0,3.0,-999,0.02,,,0.04,,2013-09-28 21:12:00,
2013-09-28 16:23:00,69.0,-99.9,-100.00,South,174,2.0,3.0,-999,0.02,,,0.04,,2013-09-28 21:23:00,
2013-09-28 16:44:00,70.0,-99.9,-100.00,South,176,1.0,3.0,-999,0.01,,,0.04,,2013-09-28 21:44:00,
2013-09-28 16:55:00,70.0,-99.9,-100.00,South,176,1.0,3.0,-999,0.01,,,0.04,,2013-09-28 21:55:00,
2013-09-28 17:14:00,70.0,-99.9,-100.00,South,177,1.0,2.0,-999,0.00,,,0.04,,2013-09-28 22:14:00,
2013-09-28 17:24:00,70.0,-99.9,-100.00,South,177,1.0,2.0,-999,0.00,,,0.04,,2013-09-28 22:24:00,
2013-09-28 17:43:00,69.0,-99.9,-100.00,South,175,1.0,2.0,-999,0.00,,,0.04,,2013-09-28 22:43:00,
2013-09-28 17:54:00,69.0,-99.9,-100.00,South,175,1.0,2.0,-999,0.00,,,0.04,,2013-09-28 22:54:00,
2013-09-28 18:13:00,70.0,-99.9,-100.00,SSE,164,1.0,2.0,-999,0.00,,,0.04,,2013-09-28 23:13:00,
2013-09-28 18:22:00,70.0,-99.9,-100.00,SSE,164,1.0,2.0,-999,0.00,,,0.04,,2013-09-28 23:22:00,
2013-09-28 18:43:00,62.0,-99.9,-100.00,WNW,296,9.0,12.0,-999,0.01,,,0.05,,2013-09-28 23:43:00,
2013-09-28 18:53:00,62.0,-99.9,-100.00,WNW,296,9.0,12.0,-999,0.01,,,0.05,,2013-09-28 23:53:00,
2013-09-28 19:12:00,61.0,-99.9,-100.00,West,277,5.0,9.0,-999,0.03,,,0.07,,2013-09-29 00:12:00,
2013-09-28 19:22:00,61.0,-99.9,-100.00,West,277,5.0,9.0,-999,0.03,,,0.07,,2013-09-29 00:22:00,
2013-09-28 19:43:00,60.0,-99.9,-100.00,WNW,285,3.0,8.0,-999,0.04,,,0.09,,2013-09-29 00:43:00,
2013-09-28 19:52:00,60.0,-99.9,-100.00,WNW,285,3.0,8.0,-999,0.04,,,0.09,,2013-09-29 00:52:00,
2013-09-28 20:12:00,60.0,-99.9,-100.00,WSW,253,5.0,9.0,-999,0.03,,,0.10,,2013-09-29 01:12:00,
2013-09-28 20:22:00,60.0,-99.9,-100.00,WSW,253,5.0,9.0,-999,0.03,,,0.10,,2013-09-29 01:22:00,
2013-09-28 20:43:00,58.0,-99.9,-100.00,West,278,5.0,8.0,-999,0.05,,,0.14,,2013-09-29 01:43:00,
2013-09-28 20:52:00,58.0,-99.9,-100.00,West,278,5.0,8.0,-999,0.05,,,0.14,,2013-09-29 01:52:00,
2013-09-28 21:00:00,58.0,-99.9,-100.00,West,271,4.0,8.0,-999,0.01,,,0.15,,2013-09-29 02:00:00,
2013-09-28 21:12:00,59.0,-99.9,-100.00,West,278,5.0,8.0,-999,0.05,,,0.15,,2013-09-29 02:12:00,
2013-09-28 21:22:00,59.0,-99.9,-100.00,West,278,5.0,8.0,-999,0.05,,,0.15,,2013-09-29 02:22:00,
2013-09-28 21:43:00,58.0,-99.9,-100.00,West,271,4.0,8.0,-999,0.01,,,0.15,,2013-09-29 02:43:00,
2013-09-28 21:53:00,58.0,-99.9,-100.00,West,271,4.0,8.0,-999,0.01,,,0.15,,2013-09-29 02:53:00,
2013-09-28 22:44:00,58.0,-99.9,-100.00,WNW,294,2.0,4.0,-999,0.00,,,0.15,,2013-09-29 03:44:00,
2013-09-28 22:55:00,58.0,-99.9,-100.00,WNW,294,2.0,4.0,-999,0.00,,,0.15,,2013-09-29 03:55:00,
2013-09-28 23:03:00,-999.0,-99.9,-100.00,West,265,4.0,6.0,-999,-99.99,,,-99.99,,2013-09-29 04:03:00,
2013-09-28 23:14:00,58.0,-99.9,-100.00,West,265,4.0,6.0,-999,0.00,,,0.15,,2013-09-29 04:14:00,
2013-09-28 23:24:00,58.0,-99.9,-100.00,West,265,4.0,6.0,-999,0.00,,,0.15,,2013-09-29 04:24:00,
2013-09-28 23:44:00,57.0,-99.9,-100.00,WSW,250,5.0,7.0,-999,0.00,,,0.15,,2013-09-29 04:44:00,
2013-09-28 23:54:00,57.0,-99.9,-100.00,WSW,250,5.0,7.0,-999,0.00,,,0.15,,2013-09-29 04:54:00,